Date,TemperatureHighF,TemperatureAvgF,TemperatureLowF,DewpointHighF,DewpointAvgF,DewpointLowF,HumidityHigh,HumidityAvg,HumidityLow,PressureMaxIn,PressureMinIn,WindSpeedMaxMPH,WindSpeedAvgMPH,GustSpeedMaxMPH,PrecipitationSumIn
2014-1-1,32.4,25.7,17.4,19.4,16.9,12.0,86,69,57,0.00,0.00,17,5,17,0.00
2014-1-2,52.2,31.3,17.3,28.0,19.4,12.2,93,64,37,0.00,0.00,18,4,18,0.00
2014-1-3,72.9,42.4,14.7,34.6,17.8,-7.4,87,49,4,0.00,0.00,18,4,18,0.00
2014-1-4,46.1,28.0,13.3,29.1,12.7,-5.3,91,53,35,27.28,0.00,23,9,23,0.00
2014-1-5,22.1,10.5,-11.5,6.5,-3.5,-19.7,63,53,46,0.00,0.00,33,7,33,0.00
2014-1-6,32.7,10.1,-9.6,8.2,-7.2,-18.7,63,49,13,0.00,0.00,13,4,13,0.00
2014-1-7,59.6,33.4,15.8,27.5,12.1,2.1,61,43,11,0.00,0.00,14,4,14,0.00
2014-1-8,41.2,28.6,18.2,22.6,17.3,12.8,95,64,47,27.26,0.00,17,6,17,0.00
2014-1-9,47.5,25.5,9.5,26.7,17.9,6.4,93,76,44,0.00,0.00,24,4,24,0.00
2014-1-10,44.4,32.5,23.4,38.3,24.9,13.1,99,75,49,0.00,0.00,31,6,31,0.00
2014-1-11,60.1,43.9,27.2,28.0,21.7,15.9,71,43,20,0.00,0.00,24,6,24,0.00
2014-1-12,55.1,44.0,35.4,30.9,22.4,11.3,54,43,23,0.00,0.00,30,8,30,0.00
2014-1-13,59.6,42.1,22.3,24.5,16.6,-6.2,63,40,7,26.96,0.00,32,9,32,0.00
2014-1-14,48.9,36.5,25.4,30.2,21.4,15.9,85,56,34,0.00,0.00,30,11,57,0.00
2014-1-15,63.3,41.4,24.1,29.7,16.9,-6.2,76,44,6,0.00,0.00,30,7,30,0.00
2014-1-16,49.5,39.2,19.8,22.7,8.7,-11.3,56,33,9,0.00,0.00,51,18,51,0.00
2014-1-17,52.2,34.6,16.7,22.0,14.5,5.2,69,45,29,0.00,0.00,19,4,19,0.00
2014-1-18,54.7,42.1,26.3,26.7,11.1,-11.3,43,31,8,0.00,0.00,38,10,38,0.00
2014-1-19,71.8,43.4,25.5,26.7,3.1,-11.6,53,27,4,0.00,0.00,27,6,28,0.00
2014-1-20,54.3,36.7,17.8,23.0,9.2,-7.9,69,38,8,27.46,0.00,46,10,46,0.00
2014-1-21,63.9,33.5,9.2,24.6,3.9,-11.8,71,41,6,27.26,0.00,30,6,30,0.00
2014-1-22,49.7,27.6,12.0,26.3,11.5,-5.9,70,51,40,0.00,0.00,20,6,20,0.00
2014-1-23,30.2,14.0,-4.3,0.4,-10.0,-20.0,45,36,13,0.00,0.00,12,5,12,0.00
2014-1-24,62.4,37.1,6.5,20.4,2.3,-10.3,58,29,7,0.00,0.00,39,11,39,0.00
2014-1-25,64.4,50.7,38.5,30.0,22.8,16.8,51,34,25,0.00,0.00,29,9,29,0.00
2014-1-26,61.7,39.7,17.8,30.7,17.6,-5.4,55,42,26,0.00,0.00,43,12,43,0.00
2014-1-27,24.6,15.6,5.7,0.0,-7.8,-15.4,40,34,21,27.37,0.00,13,4,15,0.00
2014-1-28,34.0,17.2,3.9,3.3,-12.5,-19.9,45,26,13,0.00,0.00,24,6,24,0.00
2014-1-29,62.8,34.7,7.4,15.3,-8.3,-19.7,56,17,6,0.00,0.00,18,5,19,0.00
2014-1-30,51.5,45.4,42.5,34.5,15.8,-8.2,56,35,11,0.00,0.00,34,10,34,0.00
2014-2-3,25.5,22.6,19.8,18.0,15.1,10.6,81,73,58,0.00,0.00,10,5,10,0.00
2014-2-4,36.2,16.0,2.7,35.4,7.7,-9.4,97,70,59,27.26,0.00,24,11,24,0.00
2014-2-5,18.9,2.1,-12.6,4.4,-10.7,-29.9,61,51,39,27.67,0.00,13,6,15,0.00
2014-2-6,18.0,2.5,-12.3,0.2,-12.8,-19.9,46,43,40,0.00,0.00,20,5,20,0.00
2014-2-7,25.9,11.2,2.0,8.1,-4.2,-14.1,55,49,45,27.20,0.00,16,6,16,0.00
2014-2-8,49.1,23.7,5.7,22.0,8.7,-7.3,81,54,33,27.28,0.00,11,3,11,0.00
2014-2-9,24.3,17.0,12.0,17.0,6.0,-0.6,84,62,48,27.40,0.00,16,6,16,0.00
2014-2-10,25.0,15.5,7.9,10.7,3.9,-4.2,76,60,50,27.37,0.00,16,7,16,0.00
2014-2-11,45.9,27.6,8.6,30.8,18.5,2.3,92,71,39,0.00,0.00,11,4,13,0.00
2014-2-12,53.1,36.3,24.3,30.4,24.1,18.7,83,62,38,27.26,0.00,22,6,22,0.00
2014-2-13,65.9,44.4,29.5,38.3,30.6,22.4,88,61,36,26.96,0.00,26,5,26,0.00
2014-2-14,55.1,44.1,37.8,34.5,25.9,17.1,83,51,28,0.00,0.00,27,10,27,0.00
2014-2-15,56.9,42.8,31.8,36.3,28.2,21.9,70,56,36,0.00,0.00,23,7,23,0.00
2014-2-16,64.4,45.4,27.9,37.6,30.8,22.1,89,59,37,26.96,0.00,43,9,43,0.00
2014-2-17,66.2,50.3,32.7,31.8,10.0,-7.8,77,30,6,27.08,0.00,44,10,44,0.00
2014-2-18,66.6,46.3,32.2,29.6,11.0,-7.7,57,32,5,26.90,0.00,45,9,45,0.00
2014-2-19,64.2,44.5,27.9,29.2,15.4,-6.2,70,39,6,26.96,0.00,33,8,33,0.00
2014-2-20,44.3,35.4,24.1,33.8,21.4,11.6,99,59,37,27.08,0.00,47,16,47,0.00
2014-2-21,56.3,42.0,24.1,25.9,8.6,-6.0,63,34,8,27.02,0.00,27,7,27,0.00
2014-2-22,51.3,51.3,51.3,-3.4,-3.4,-3.4,10,10,10,27.23,0.00,17,6,17,0.00
2014-2-23,51.3,51.3,51.3,-3.4,-3.4,-3.4,10,10,10,0.00,0.00,15,7,15,0.00
2014-2-24,51.3,43.5,13.7,23.9,2.1,-3.4,74,26,10,27.43,0.00,26,11,26,0.00
2014-2-25,19.1,12.2,4.5,4.5,0.1,-6.5,60,58,50,27.43,0.00,13,5,18,0.00
2014-2-26,38.9,18.8,-2.4,18.2,3.3,-13.3,59,51,40,27.26,0.00,20,5,20,0.00
2014-2-27,49.1,29.2,9.0,24.8,16.9,2.1,80,62,38,0.00,0.00,23,9,24,0.00
2014-2-28,41.7,29.0,21.0,27.5,19.9,11.5,89,69,52,27.17,0.00,23,8,27,0.00
2014-3-1,20.7,11.4,3.2,11.5,1.8,-5.9,67,65,61,27.43,0.00,19,9,19,0.00
2014-3-2,15.6,6.6,0.2,6.0,-2.6,-8.8,65,65,65,0.00,0.00,12,5,12,0.00
2014-3-3,50.7,25.2,3.8,27.4,11.8,-5.4,77,58,41,27.11,0.00,27,9,27,0.00
2014-3-4,75.9,43.2,21.8,38.4,24.7,-10.8,91,60,3,27.05,0.00,24,5,24,0.00
2014-3-5,55.1,36.4,27.9,33.0,25.8,22.1,84,67,41,27.26,0.00,16,5,16,0.00
2014-3-6,81.7,52.7,28.2,38.5,15.9,-10.8,95,43,3,0.00,40.00,13,4,14,0.00
2014-3-7,54.3,40.9,30.4,35.1,28.0,20.2,80,61,37,27.02,0.00,27,11,27,0.00
2014-3-8,63.3,39.7,22.3,35.3,25.6,17.8,86,60,32,27.40,0.00,14,3,14,0.00
2014-3-9,82.4,56.2,32.7,36.7,13.4,-10.8,80,35,3,0.00,0.00,23,8,25,0.00
2014-3-10,85.1,60.3,34.7,35.1,7.7,-10.8,53,21,3,27.08,0.00,22,6,22,0.00
2014-3-11,58.3,43.7,35.4,38.7,26.5,-7.6,96,61,7,27.26,0.00,32,12,32,0.00
2014-3-12,60.3,41.7,29.0,27.2,14.7,-8.0,77,45,7,0.00,40.00,20,9,26,0.00
2014-3-13,78.5,51.1,27.0,29.8,6.9,-10.8,71,29,3,27.26,0.00,22,6,22,0.00
2014-3-14,71.4,53.3,35.6,33.7,14.7,-6.5,60,29,5,0.00,0.00,18,7,19,0.00
2014-3-15,67.1,49.3,36.5,35.6,23.2,-5.4,75,41,6,0.00,0.00,36,12,36,0.00
2014-3-16,59.2,42.8,31.3,30.6,23.6,19.9,70,49,28,27.40,0.00,15,6,15,0.00
2014-3-17,81.0,57.6,38.9,34.0,9.3,-10.8,53,25,3,27.02,0.00,26,8,26,0.00
2014-3-18,56.0,41.2,35.1,36.2,28.8,-5.7,98,67,8,26.52,0.00,37,15,37,0.00
2014-3-19,59.4,41.5,26.4,30.2,19.2,-6.2,89,51,7,27.20,0.00,28,6,28,0.00
2014-3-20,75.9,49.4,22.7,30.8,5.6,-10.8,80,30,3,27.02,0.00,22,6,22,0.00
2014-3-21,60.8,46.0,32.2,26.8,11.4,-7.4,70,33,7,27.23,0.00,30,11,30,0.00
2014-3-22,34.2,28.8,21.0,23.7,19.9,12.0,87,69,56,0.00,0.00,15,6,17,0.00
2014-3-23,52.7,29.5,9.5,28.9,18.0,3.8,84,64,39,0.00,0.00,32,8,32,0.00
2014-3-24,51.8,38.0,25.5,28.0,22.6,16.5,90,57,32,0.00,0.00,18,7,23,0.00
2014-3-25,56.1,40.8,26.3,25.2,20.1,12.7,67,45,29,27.46,0.00,25,9,25,0.00
2014-3-26,81.7,55.1,34.2,44.6,26.2,-9.8,80,42,3,26.72,0.00,33,11,33,0.00
2014-3-27,57.4,44.0,29.0,46.6,33.0,23.2,98,68,38,26.49,0.00,31,11,31,0.00
2014-3-28,66.0,45.4,28.6,39.3,19.0,-5.5,96,52,6,27.08,0.00,30,8,30,0.00
2014-3-29,75.6,50.9,21.0,34.5,10.0,-10.8,89,37,3,27.08,0.00,24,8,26,0.00
2014-3-30,78.8,59.4,37.1,38.1,17.5,-10.6,54,26,3,0.00,0.00,14,5,16,0.00
2014-3-31,59.6,47.5,31.7,32.8,25.5,18.2,59,43,28,27.08,0.00,57,23,57,0.00
2014-4-1,58.1,40.5,22.3,24.4,20.3,13.2,77,47,27,27.11,0.00,24,24,24,0.00
2014-4-2,56.7,41.0,34.2,35.9,25.0,18.7,97,54,39,0.00,0.00,24,24,24,0.00
2014-4-3,44.3,38.1,29.7,38.5,31.4,23.2,98,78,51,27.20,0.00,24,24,24,0.00
2014-4-4,69.3,45.0,25.9,35.5,23.2,-6.6,88,52,5,0.00,0.00,24,24,24,0.00
2014-4-5,72.5,52.8,33.1,38.3,25.9,-7.4,72,41,4,27.11,0.00,24,24,24,0.00
2014-4-6,77.7,55.8,38.1,43.0,35.3,-9.6,92,54,3,0.00,0.00,24,24,24,0.00
2014-4-7,46.6,40.4,37.2,42.1,37.0,32.9,96,88,81,27.05,0.00,24,24,24,0.00
2014-4-14,34.0,33.9,33.8,21.0,20.9,20.8,59,58,58,0.00,0.00,0,0,0,0.00